Time;durP1;ratioP1;P1;durP2;ratioP2;P2;SDS_P1;SDS_P2;PMS_P1;PMS_P2;Temp;Humidity;BMP_temperature;BMP_pressure;BME280_temperature;BME280_humidity;BME280_pressure;Samples;Min_cycle;Max_cycle;Signal;HPM_P1;HPM_P2
2021/04/02 00:03:35;;;;;;;1.47;1.33;;;;;;;4.40;82.98;99850.98;232615;1174;116082;-67
2021/04/02 00:08:38;;;;;;;;;;;;;;;4.35;84.31;99852.56;233597;1174;116860;-67
2021/04/02 00:13:46;;;;;;;1.57;1.47;;;;;;;4.30;85.22;99865.52;234844;1174;103451;-65
2021/04/02 00:18:50;;;;;;;1.67;1.57;;;;;;;4.33;84.86;99873.87;234044;1174;116255;-66
2021/04/02 00:23:53;;;;;;;2.18;2.03;;;;;;;4.40;85.48;99877.38;235154;1174;115121;-66
2021/04/02 00:28:57;;;;;;;2.97;2.30;;;;;;;4.40;85.08;99861.55;232454;1174;118052;-67
2021/04/02 00:34:02;;;;;;;3.47;2.90;;;;;;;4.45;83.67;99868.08;234983;1174;117151;-68
2021/04/02 00:39:06;;;;;;;3.47;3.17;;;;;;;4.33;83.74;99858.03;233818;1174;115733;-66
2021/04/02 00:44:09;;;;;;;2.15;2.05;;;;;;;4.33;83.44;99847.48;234732;1174;114641;-66
2021/04/02 00:49:12;;;;;;;4.23;3.68;;;;;;;4.23;84.03;99852.29;234054;1174;208188;-66
2021/04/02 00:54:15;;;;;;;2.77;2.53;;;;;;;4.22;83.48;99855.94;233950;1174;115793;-67
2021/04/02 00:59:20;;;;;;;4.23;2.07;;;;;;;4.16;83.21;99845.32;233644;1174;114849;-66
2021/04/02 01:04:24;;;;;;;4.87;2.80;;;;;;;4.18;84.16;99857.31;232727;1171;115397;-65
2021/04/02 01:09:28;;;;;;;3.10;2.90;;;;;;;4.05;85.00;99852.73;233237;1174;115365;-65
2021/04/02 01:14:31;;;;;;;2.43;2.23;;;;;;;4.05;84.59;99867.74;232541;1170;115001;-65
2021/04/02 01:19:45;;;;;;;2.60;2.38;;;;;;;3.96;84.18;99860.98;232582;1173;220882;-64
2021/04/02 01:25:23;;;;;;;2.68;2.08;;;;;;;3.93;84.55;99878.00;233141;1174;114966;-66
2021/04/02 01:30:29;;;;;;;1.50;1.40;;;;;;;3.85;83.88;99883.39;233887;1174;114740;-66
2021/04/02 01:35:38;;;;;;;2.60;2.40;;;;;;;3.80;83.83;99887.58;232554;1174;114879;-65
2021/04/02 01:40:46;;;;;;;4.33;2.10;;;;;;;3.84;84.70;99896.76;233451;1173;116224;-66
2021/04/02 01:45:52;;;;;;;2.88;2.38;;;;;;;3.82;83.77;99899.58;233514;1174;115037;-67
2021/04/02 01:50:59;;;;;;;2.70;2.50;;;;;;;3.79;84.17;99917.59;233093;1171;115952;-67
2021/04/02 01:56:04;;;;;;;1.97;1.87;;;;;;;3.75;84.04;99925.05;233499;1167;115284;-65
2021/04/02 02:01:10;;;;;;;1.67;1.57;;;;;;;3.76;84.29;99939.87;233008;1174;115860;-66
2021/04/02 02:06:15;;;;;;;3.38;2.48;;;;;;;3.77;83.44;99948.59;232738;1174;116215;-67
2021/04/02 02:11:20;;;;;;;6.40;3.50;;;;;;;3.59;83.64;99946.38;233702;1166;116595;-67
2021/04/02 02:16:27;;;;;;;1.40;1.30;;;;;;;3.48;83.01;99962.64;233356;1173;116577;-66
2021/04/02 02:21:30;;;;;;;1.68;1.38;;;;;;;3.47;82.20;99974.19;235229;1174;116393;-66
2021/04/02 02:26:34;;;;;;;1.43;1.18;;;;;;;3.38;82.87;99968.19;235178;1173;114533;-67
2021/04/02 02:31:39;;;;;;;2.00;1.55;;;;;;;3.32;83.01;99971.58;235180;1174;115043;-67
2021/04/02 02:36:44;;;;;;;1.70;1.53;;;;;;;3.22;82.95;99960.48;234967;1174;115757;-68
2021/04/02 02:41:47;;;;;;;1.48;1.35;;;;;;;3.09;82.59;99955.83;235082;1173;114866;-67
2021/04/02 02:46:51;;;;;;;1.18;0.98;;;;;;;2.79;82.63;99959.42;233789;1174;115566;-68
2021/04/02 02:51:58;;;;;;;2.23;1.63;;;;;;;2.64;83.39;99968.13;233780;1174;115257;-66
2021/04/02 02:57:03;;;;;;;2.10;1.90;;;;;;;2.43;84.02;99969.80;233131;1174;114900;-66
2021/04/02 03:02:08;;;;;;;3.85;2.88;;;;;;;2.34;84.01;99966.39;233592;1174;114890;-66
2021/04/02 03:07:13;;;;;;;1.95;1.85;;;;;;;2.16;84.43;99974.56;232568;1174;115053;-67
2021/04/02 03:12:19;;;;;;;2.73;2.53;;;;;;;2.14;85.13;99992.32;233551;1174;114865;-67
2021/04/02 03:17:25;;;;;;;2.03;1.90;;;;;;;2.08;85.02;99997.48;232737;1174;114884;-66
2021/04/02 03:22:32;;;;;;;2.63;2.20;;;;;;;1.97;85.64;99994.24;232613;1174;115457;-66
2021/04/02 03:27:39;;;;;;;5.10;2.90;;;;;;;1.90;85.44;100001.17;233119;1170;115594;-66
2021/04/02 03:32:48;;;;;;;4.48;3.75;;;;;;;1.91;85.89;100002.81;232780;1174;115795;-67
2021/04/02 03:37:54;;;;;;;5.20;4.57;;;;;;;1.93;86.11;99995.58;232577;1174;115529;-68
2021/04/02 03:43:00;;;;;;;6.63;4.50;;;;;;;2.02;85.42;99988.47;232592;1174;139396;-68
2021/04/02 03:48:06;;;;;;;;;;;;;;;2.03;84.72;99985.67;232993;1174;116569;-68
2021/04/02 03:53:24;;;;;;;11.87;8.77;;;;;;;2.06;84.32;99970.54;234385;1173;103098;-67
2021/04/02 03:58:30;;;;;;;7.90;5.65;;;;;;;1.98;85.62;99966.96;232984;1174;116091;-67
2021/04/02 04:03:39;;;;;;;8.75;6.40;;;;;;;1.93;85.01;99977.17;232789;1174;115209;-65
2021/04/02 04:08:48;;;;;;;15.08;9.45;;;;;;;1.94;85.25;99983.25;233689;1174;116829;-67
2021/04/02 04:13:55;;;;;;;12.40;8.43;;;;;;;1.92;84.60;99985.23;233017;1174;115869;-67
2021/04/02 04:19:00;;;;;;;9.68;6.38;;;;;;;1.84;84.59;99991.34;233839;1174;116507;-67
2021/04/02 04:24:07;;;;;;;10.40;8.00;;;;;;;1.80;84.95;99997.14;233923;1170;115625;-65
2021/04/02 04:29:18;;;;;;;14.37;8.90;;;;;;;1.89;84.86;100002.16;234801;1170;116243;-68
2021/04/02 04:34:22;;;;;;;13.08;9.05;;;;;;;1.92;85.30;100001.82;235275;1173;116229;-68
2021/04/02 04:39:28;;;;;;;13.10;10.60;;;;;;;1.97;84.20;100006.56;232759;1174;116600;-67
2021/04/02 04:44:32;;;;;;;10.50;7.80;;;;;;;2.02;83.00;100010.33;233424;1174;116949;-68
2021/04/02 04:49:36;;;;;;;7.00;5.45;;;;;;;1.94;83.45;100023.50;233077;1175;116742;-68
2021/04/02 04:54:45;;;;;;;6.40;5.80;;;;;;;2.03;83.20;100026.92;232766;1174;116134;-67
2021/04/02 04:59:51;;;;;;;9.33;6.43;;;;;;;1.98;82.78;100035.32;233153;1173;115601;-67
2021/04/02 05:04:57;;;;;;;14.23;10.60;;;;;;;2.05;82.96;100043.34;233314;1174;115712;-67
2021/04/02 05:10:01;;;;;;;17.55;10.38;;;;;;;2.19;83.03;100039.14;232512;1174;115684;-67
2021/04/02 05:15:05;;;;;;;14.53;8.70;;;;;;;2.27;83.00;100039.92;232485;1174;116413;-67
2021/04/02 05:20:10;;;;;;;16.17;11.67;;;;;;;2.30;83.35;100042.21;233037;1174;116002;-67
2021/04/02 05:25:15;;;;;;;18.20;11.10;;;;;;;2.30;82.64;100044.84;233454;1174;116115;-66
2021/04/02 05:30:19;;;;;;;23.75;15.55;;;;;;;2.40;82.32;100049.06;232612;1174;116846;-68
2021/04/02 05:35:24;;;;;;;16.55;11.55;;;;;;;2.41;82.95;100045.45;233400;1174;116457;-68
2021/04/02 05:40:28;;;;;;;20.30;13.15;;;;;;;2.39;82.00;100050.06;232622;1174;118921;-67
2021/04/02 05:45:36;;;;;;;16.50;12.15;;;;;;;2.31;82.29;100048.30;232592;1170;115866;-64
2021/04/02 05:50:42;;;;;;;22.10;14.43;;;;;;;2.44;82.28;100048.55;232780;1174;116241;-66
2021/04/02 05:55:47;;;;;;;19.75;12.30;;;;;;;2.40;79.13;100054.33;232606;1174;118279;-63
2021/04/02 06:00:55;;;;;;;14.20;8.80;;;;;;;2.34;81.39;100053.20;232546;1174;116576;-64
2021/04/02 06:05:58;;;;;;;17.93;10.47;;;;;;;2.35;80.56;100058.30;233165;1175;117674;-63
2021/04/02 06:11:01;;;;;;;15.10;9.50;;;;;;;2.43;81.43;100065.33;232968;1167;116613;-64
2021/04/02 06:16:07;;;;;;;16.05;11.70;;;;;;;2.56;80.91;100056.84;232623;1174;116164;-64
2021/04/02 06:21:10;;;;;;;14.10;9.50;;;;;;;2.85;78.14;100048.23;234016;1174;116294;-65
2021/04/02 06:26:16;;;;;;;16.17;10.23;;;;;;;3.02;79.79;100055.83;234291;1174;115953;-65
2021/04/02 06:31:20;;;;;;;17.75;9.35;;;;;;;3.16;77.50;100056.84;234899;1174;115476;-66
2021/04/02 06:36:26;;;;;;;16.73;11.20;;;;;;;3.25;74.97;100068.95;234881;1174;115087;-65
2021/04/02 06:41:36;;;;;;;9.00;8.00;;;;;;;3.48;76.78;100066.25;235160;1173;115320;-66
2021/04/02 06:46:40;;;;;;;;;;;;;;;3.69;74.19;100066.34;234220;1174;115524;-67
2021/04/02 06:51:45;;;;;;;12.10;9.50;;;;;;;3.94;73.44;100066.07;235915;1174;102709;-66
2021/04/02 06:56:57;;;;;;;11.10;9.87;;;;;;;4.32;74.25;100066.70;232872;1167;115518;-67
2021/04/02 07:02:04;;;;;;;9.38;8.33;;;;;;;4.34;72.87;100068.16;234177;1174;116976;-66
2021/04/02 07:07:10;;;;;;;11.10;9.35;;;;;;;4.28;72.31;100062.83;233330;1173;115805;-64
2021/04/02 07:12:15;;;;;;;14.95;11.40;;;;;;;4.33;73.73;100058.61;232690;1174;116224;-67
2021/04/02 07:17:19;;;;;;;11.00;9.65;;;;;;;4.33;73.28;100063.88;233550;1174;116052;-67
2021/04/02 07:22:23;;;;;;;10.50;8.90;;;;;;;4.44;72.85;100064.41;232829;1174;116124;-66
2021/04/02 07:27:28;;;;;;;10.00;8.33;;;;;;;4.55;71.95;100077.13;232813;1173;116193;-67
2021/04/02 07:32:36;;;;;;;10.93;8.55;;;;;;;4.58;71.85;100082.04;232400;1174;117058;-67
2021/04/02 07:37:40;;;;;;;5.35;3.95;;;;;;;4.64;72.91;100086.55;232526;1174;116821;-67
2021/04/02 07:42:56;;;;;;;8.30;6.20;;;;;;;4.77;71.43;100094.61;233603;1174;116080;-67
2021/04/02 07:48:11;;;;;;;4.85;4.45;;;;;;;4.65;69.02;100083.72;232612;1174;115293;-66
2021/04/02 07:53:24;;;;;;;8.08;5.38;;;;;;;4.86;70.75;100088.21;232801;1174;116093;-65
2021/04/02 07:58:30;;;;;;;6.07;5.47;;;;;;;5.33;69.83;100077.00;233174;1174;115703;-64
2021/04/02 08:03:34;;;;;;;6.80;4.88;;;;;;;5.64;68.80;100081.89;233233;1174;115062;-64
2021/04/02 08:08:46;;;;;;;5.10;4.30;;;;;;;5.84;69.72;100091.76;232668;1174;115227;-67
2021/04/02 08:13:54;;;;;;;5.48;4.10;;;;;;;5.85;68.17;100085.45;233239;1174;116947;-65
2021/04/02 08:19:05;;;;;;;7.50;5.83;;;;;;;5.98;70.10;100077.63;233059;1167;116522;-65
2021/04/02 08:24:14;;;;;;;6.20;5.63;;;;;;;6.10;69.21;100078.72;234234;1174;117530;-67
2021/04/02 08:29:20;;;;;;;5.37;4.87;;;;;;;6.24;65.64;100076.92;233650;1174;116160;-66
2021/04/02 08:34:26;;;;;;;3.35;3.08;;;;;;;6.40;64.76;100087.99;234619;1174;115591;-67
2021/04/02 08:39:30;;;;;;;6.05;4.83;;;;;;;6.58;63.99;100079.47;234139;1174;117111;-67
2021/04/02 08:44:32;;;;;;;5.58;5.10;;;;;;;7.09;66.26;100087.69;235159;1174;116095;-67
2021/04/02 08:49:41;;;;;;;4.98;3.88;;;;;;;7.42;59.93;100073.60;234702;1174;116449;-68
2021/04/02 08:54:47;;;;;;;3.95;3.60;;;;;;;7.64;59.28;100079.51;234515;1174;116905;-68
2021/04/02 08:59:54;;;;;;;3.37;3.07;;;;;;;7.55;61.43;100084.20;232324;1174;117197;-67
2021/04/02 09:05:01;;;;;;;3.33;3.05;;;;;;;7.65;58.18;100081.92;232820;1176;115607;-70
2021/04/02 09:10:13;;;;;;;3.20;2.30;;;;;;;8.15;58.59;100066.27;232722;1175;117267;-70
2021/04/02 09:15:27;;;;;;;3.33;2.80;;;;;;;7.75;61.23;100066.40;232351;1174;116085;-69
2021/04/02 09:20:31;;;;;;;6.10;3.50;;;;;;;7.87;62.95;100068.42;233101;1176;116256;-71
2021/04/02 09:25:45;;;;;;;5.20;4.70;;;;;;;7.72;62.34;100058.85;232614;1174;116161;-69
2021/04/02 09:31:25;;;;;;;4.13;3.73;;;;;;;7.91;58.67;100053.71;232569;1174;115971;-69
2021/04/02 09:36:38;;;;;;;4.10;3.73;;;;;;;7.83;57.91;100046.79;232429;1174;115799;-69
2021/04/02 09:41:54;;;;;;;4.85;4.43;;;;;;;7.92;60.53;100034.92;232233;1171;115663;-70
2021/04/02 09:47:09;;;;;;;3.60;3.30;;;;;;;8.72;57.67;100024.70;232419;1174;115727;-70
2021/04/02 09:52:13;;;;;;;6.30;4.60;;;;;;;9.45;55.92;100025.72;232586;1174;114721;-68
2021/04/02 09:57:18;;;;;;;2.63;2.45;;;;;;;9.26;55.73;100021.38;233316;1174;114738;-66
2021/04/02 10:02:22;;;;;;;2.30;2.13;;;;;;;9.03;55.52;100014.02;233324;1173;115699;-65
2021/04/02 10:07:25;;;;;;;4.60;3.43;;;;;;;9.37;55.15;100004.70;233857;1174;116344;-66
2021/04/02 10:12:29;;;;;;;3.48;3.18;;;;;;;9.34;52.97;99997.16;233290;1174;115408;-65
2021/04/02 10:17:37;;;;;;;3.27;3.07;;;;;;;9.58;53.10;100003.45;233038;1174;117162;-68
2021/04/02 10:22:41;;;;;;;3.37;3.00;;;;;;;9.61;53.37;99991.55;234302;1173;115437;-67
2021/04/02 10:27:45;;;;;;;3.40;3.10;;;;;;;9.25;53.95;99989.68;234579;1174;116393;-66
2021/04/02 10:32:49;;;;;;;5.03;3.03;;;;;;;8.95;54.48;99985.05;232385;1174;116026;-68
2021/04/02 10:37:53;;;;;;;4.55;2.95;;;;;;;9.13;50.52;99976.31;232609;1174;116214;-67
2021/04/02 10:42:58;;;;;;;3.08;2.85;;;;;;;9.51;52.86;99972.63;234190;1174;116303;-66
2021/04/02 10:48:03;;;;;;;3.23;2.18;;;;;;;9.57;52.41;99971.73;235111;1174;115683;-67
2021/04/02 10:53:06;;;;;;;3.43;3.08;;;;;;;9.87;53.97;99966.46;235153;1174;115810;-72
2021/04/02 10:58:10;;;;;;;2.88;2.68;;;;;;;10.14;51.65;99962.41;235056;1174;114972;-69
2021/04/02 11:03:14;;;;;;;4.73;2.80;;;;;;;10.27;54.02;99967.59;234107;1174;115979;-70
2021/04/02 11:08:18;;;;;;;3.40;3.03;;;;;;;10.33;48.77;99964.03;232736;1174;116426;-68
2021/04/02 11:13:21;;;;;;;2.88;2.68;;;;;;;10.51;48.72;99959.66;233187;1174;116609;-67
2021/04/02 11:18:25;;;;;;;2.90;2.60;;;;;;;10.48;49.99;99952.11;232379;1174;115884;-68
2021/04/02 11:23:29;;;;;;;3.57;3.27;;;;;;;10.39;48.07;99952.47;233502;1174;115891;-69
2021/04/02 11:35:01;;;;;;;3.33;3.13;;;;;;;10.37;50.23;99929.75;233476;1174;116438;-67
2021/04/02 11:40:07;;;;;;;3.40;3.10;;;;;;;10.47;48.29;99916.66;232401;1174;117614;-66
2021/04/02 11:45:12;;;;;;;4.53;3.43;;;;;;;10.51;49.13;99906.34;232364;1174;116964;-67
2021/04/02 11:50:15;;;;;;;3.95;2.95;;;;;;;10.52;48.35;99902.64;232629;1174;117089;-68
2021/04/02 11:55:19;;;;;;;3.13;2.80;;;;;;;10.43;47.78;99902.97;232669;1174;115384;-69
2021/04/02 12:00:25;;;;;;;3.85;3.20;;;;;;;10.46;50.87;99899.84;233471;1174;116328;-67
2021/04/02 12:05:28;;;;;;;3.83;2.47;;;;;;;10.55;45.65;99896.85;232484;1174;116251;-68
2021/04/02 12:10:31;;;;;;;2.50;2.30;;;;;;;10.62;48.05;99879.72;232447;1174;115799;-67
2021/04/02 12:15:34;;;;;;;2.80;2.60;;;;;;;10.53;50.02;99882.94;232159;1174;116840;-68
2021/04/02 12:20:37;;;;;;;3.07;2.60;;;;;;;10.56;48.64;99874.48;233731;1174;115313;-69
2021/04/02 12:25:42;;;;;;;2.85;2.08;;;;;;;10.56;45.89;99874.48;234033;1174;117370;-69
2021/04/02 12:30:47;;;;;;;2.25;2.15;;;;;;;10.68;45.62;99864.66;232441;1177;116052;-69
2021/04/02 12:35:51;;;;;;;3.65;3.35;;;;;;;10.72;46.88;99858.59;232485;1174;116555;-69
2021/04/02 12:40:55;;;;;;;5.70;2.97;;;;;;;10.82;46.12;99844.69;232443;1174;115868;-69
2021/04/02 12:46:03;;;;;;;2.77;2.00;;;;;;;10.95;42.32;99849.79;234950;1174;116133;-70
2021/04/02 12:51:07;;;;;;;5.80;4.58;;;;;;;10.97;43.38;99845.03;234877;1173;114892;-69
2021/04/02 12:56:11;;;;;;;4.37;3.97;;;;;;;10.94;44.25;99832.16;233224;1174;115580;-69
2021/04/02 13:01:14;;;;;;;4.03;3.57;;;;;;;10.84;46.64;99821.27;234896;1174;115442;-68
2021/04/02 13:06:18;;;;;;;2.93;2.73;;;;;;;10.51;45.70;99810.40;234745;1174;115342;-68
2021/04/02 13:11:22;;;;;;;4.27;3.93;;;;;;;10.66;46.22;99808.09;232332;1173;115820;-68
2021/04/02 13:16:26;;;;;;;4.55;3.28;;;;;;;10.61;46.50;99807.97;232766;1174;118686;-69
2021/04/02 13:21:29;;;;;;;2.90;2.70;;;;;;;10.63;46.87;99801.36;234413;1174;116019;-69
2021/04/02 13:26:32;;;;;;;4.03;3.68;;;;;;;10.72;46.08;99791.13;233380;1174;115279;-67
2021/04/02 13:31:36;;;;;;;3.98;3.68;;;;;;;10.89;46.20;99788.56;234003;1174;115573;-70
2021/04/02 13:36:40;;;;;;;6.38;4.73;;;;;;;10.93;44.92;99790.53;232606;1174;115426;-68
2021/04/02 13:41:44;;;;;;;5.70;4.90;;;;;;;10.96;44.80;99775.92;232643;1174;117199;-63
2021/04/02 13:46:51;;;;;;;5.33;4.65;;;;;;;10.93;45.88;99774.53;233600;1174;115572;-67
2021/04/02 13:51:54;;;;;;;6.80;5.23;;;;;;;10.96;46.25;99768.73;233185;1174;115452;-67
2021/04/02 13:56:59;;;;;;;7.23;5.30;;;;;;;10.82;45.33;99759.36;232372;1174;118634;-69
2021/04/02 14:02:08;;;;;;;7.27;5.87;;;;;;;10.80;45.64;99756.92;232497;1174;116356;-68
2021/04/02 14:07:12;;;;;;;8.10;5.35;;;;;;;10.80;44.60;99753.45;232753;1173;115777;-67
2021/04/02 14:12:15;;;;;;;4.88;4.18;;;;;;;10.60;43.36;99739.70;232530;1174;115128;-67
2021/04/02 14:17:20;;;;;;;11.70;5.23;;;;;;;10.71;43.03;99742.33;232541;1174;117413;-69
2021/04/02 14:22:24;;;;;;;3.07;2.77;;;;;;;10.64;42.50;99735.53;232929;1174;117636;-69
2021/04/02 14:27:28;;;;;;;4.05;3.68;;;;;;;10.54;43.95;99729.98;232371;1176;116634;-68
2021/04/02 14:32:31;;;;;;;7.33;4.33;;;;;;;10.50;44.10;99737.63;232211;1174;117043;-69
2021/04/02 14:37:34;;;;;;;4.60;3.83;;;;;;;10.31;40.19;99731.63;233021;1174;116475;-67
2021/04/02 14:42:38;;;;;;;4.50;3.28;;;;;;;10.13;44.25;99724.53;232735;1174;115898;-69
2021/04/02 14:47:42;;;;;;;4.50;3.90;;;;;;;10.02;41.99;99717.37;233521;1174;115882;-68
2021/04/02 14:52:45;;;;;;;5.75;4.20;;;;;;;9.94;41.06;99708.91;234635;1174;116152;-67
2021/04/02 14:57:48;;;;;;;4.85;3.75;;;;;;;9.83;39.88;99712.36;235034;1167;115483;-70
2021/04/02 15:02:52;;;;;;;6.68;4.58;;;;;;;9.89;37.94;99703.45;233023;1174;116045;-68
2021/04/02 15:07:55;;;;;;;5.23;4.00;;;;;;;9.88;36.59;99709.82;234156;1169;116128;-68
2021/04/02 15:12:58;;;;;;;6.10;3.70;;;;;;;9.76;36.98;99702.66;233726;1174;114879;-68
2021/04/02 15:18:02;;;;;;;4.85;4.28;;;;;;;9.70;39.95;99703.56;234557;1176;115767;-68
2021/04/02 15:23:06;;;;;;;4.67;3.83;;;;;;;9.68;39.89;99704.83;232869;1174;115811;-68
2021/04/02 15:28:10;;;;;;;9.05;4.48;;;;;;;9.61;39.22;99701.45;232673;1174;115524;-67
2021/04/02 15:33:12;;;;;;;5.60;5.00;;;;;;;9.53;40.38;99699.94;233188;1168;115317;-70
2021/04/02 15:38:15;;;;;;;5.63;4.50;;;;;;;9.39;43.15;99701.19;233300;1174;115953;-67
2021/04/02 15:43:18;;;;;;;4.30;3.90;;;;;;;9.40;40.39;99700.16;232484;1174;115995;-68
2021/04/02 15:48:21;;;;;;;6.28;4.00;;;;;;;9.34;40.32;99693.08;232446;1174;116333;-73
2021/04/02 15:53:23;;;;;;;7.15;4.20;;;;;;;9.15;40.95;99689.69;233602;1174;115869;-68
2021/04/02 15:58:26;;;;;;;127.23;58.67;;;;;;;9.06;43.57;99680.39;233526;1174;116735;-67
2021/04/02 16:03:30;;;;;;;10.00;5.88;;;;;;;8.98;41.28;99688.67;233527;1174;115695;-73
2021/04/02 16:08:33;;;;;;;4.67;3.43;;;;;;;8.81;42.81;99680.53;232945;1174;116089;-73
2021/04/02 16:13:41;;;;;;;6.58;5.58;;;;;;;8.74;42.61;99679.80;232911;1174;116222;-68
2021/04/02 16:18:43;;;;;;;5.43;3.70;;;;;;;8.66;43.19;99678.25;233024;1174;115395;-69
2021/04/02 16:23:50;;;;;;;4.85;4.10;;;;;;;8.55;45.08;99673.70;233187;1174;114484;-70
2021/04/02 16:28:53;;;;;;;5.70;5.05;;;;;;;8.49;43.00;99671.13;233232;1174;114764;-71
2021/04/02 16:33:56;;;;;;;8.30;5.58;;;;;;;8.38;43.18;99673.48;232930;1174;117090;-72
2021/04/02 16:38:59;;;;;;;6.43;5.75;;;;;;;8.31;43.40;99664.73;232219;1174;115844;-71
2021/04/02 16:44:01;;;;;;;4.13;3.00;;;;;;;8.17;49.20;99650.00;232628;1173;115529;-67
2021/04/02 16:49:08;;;;;;;9.58;6.15;;;;;;;8.07;46.16;99639.88;232455;1174;115838;-71
2021/04/02 16:54:13;;;;;;;7.28;5.48;;;;;;;7.94;45.45;99644.53;232753;1176;117250;-70
2021/04/02 16:59:19;;;;;;;5.85;5.08;;;;;;;7.78;47.42;99648.55;233539;1175;115808;-70
2021/04/02 17:04:22;;;;;;;7.90;5.98;;;;;;;7.61;48.07;99656.27;234640;1174;115956;-70
2021/04/02 17:09:25;;;;;;;9.80;6.23;;;;;;;7.42;49.90;99643.95;234946;1174;115607;-72
2021/04/02 17:14:27;;;;;;;6.65;4.95;;;;;;;7.22;50.16;99656.56;235106;1174;114670;-68
2021/04/02 17:19:31;;;;;;;7.33;6.20;;;;;;;7.00;50.71;99648.15;235164;1174;115663;-73
2021/04/02 17:24:34;;;;;;;15.03;6.70;;;;;;;6.85;51.26;99648.42;233648;1176;115915;-66
2021/04/02 17:29:38;;;;;;;5.40;4.60;;;;;;;6.70;54.46;99661.16;232592;1174;117743;-69
2021/04/02 17:34:41;;;;;;;6.60;5.33;;;;;;;6.53;57.84;99646.75;233786;1174;115104;-68
2021/04/02 17:39:57;;;;;;;6.75;4.65;;;;;;;6.32;57.85;99653.97;232692;1176;115139;-68
2021/04/02 17:45:01;;;;;;;8.80;5.05;;;;;;;6.15;61.23;99654.63;232844;1174;115230;-67
2021/04/02 17:50:06;;;;;;;6.40;4.15;;;;;;;5.94;62.15;99653.05;233375;1174;116236;-68
2021/04/02 17:55:13;;;;;;;7.45;4.18;;;;;;;5.74;63.06;99659.16;233132;1176;115590;-67
2021/04/02 18:00:18;;;;;;;5.90;4.03;;;;;;;5.53;61.47;99655.91;232446;1177;115661;-67
2021/04/02 18:05:21;;;;;;;8.15;4.40;;;;;;;5.24;61.99;99657.92;233216;1170;115853;-66
2021/04/02 18:10:30;;;;;;;4.30;3.33;;;;;;;4.98;64.66;99665.81;233340;1174;114499;-67
2021/04/02 18:15:36;;;;;;;6.45;4.25;;;;;;;4.79;64.63;99663.95;232361;1174;115238;-68
2021/04/02 18:20:40;;;;;;;6.83;4.40;;;;;;;4.66;65.90;99664.71;232663;1174;116593;-67
2021/04/02 18:25:48;;;;;;;6.68;5.45;;;;;;;4.53;64.74;99662.05;233416;1174;115258;-68
2021/04/02 18:30:51;;;;;;;5.65;3.90;;;;;;;4.44;67.39;99656.11;232527;1174;116168;-68
2021/04/02 18:35:55;;;;;;;3.80;3.40;;;;;;;4.25;66.74;99644.47;232587;1174;115988;-68
2021/04/02 18:41:02;;;;;;;6.60;4.50;;;;;;;4.08;69.26;99644.97;233826;1174;115014;-67
2021/04/02 18:46:04;;;;;;;8.10;5.25;;;;;;;3.90;68.93;99637.58;233021;1174;115464;-67
2021/04/02 18:51:11;;;;;;;11.20;8.73;;;;;;;3.70;69.79;99627.70;232305;1174;115032;-66
2021/04/02 18:56:15;;;;;;;15.18;9.40;;;;;;;3.55;71.32;99613.83;233616;1174;114846;-66
2021/04/02 19:01:19;;;;;;;27.70;12.50;;;;;;;3.45;72.37;99623.88;233780;1174;118517;-66
2021/04/02 19:06:23;;;;;;;36.40;17.20;;;;;;;3.41;73.68;99624.45;234707;1174;116971;-69
2021/04/02 19:11:29;;;;;;;25.67;15.27;;;;;;;3.49;71.30;99619.86;235035;1174;116175;-69
2021/04/02 19:16:32;;;;;;;30.93;14.83;;;;;;;3.55;71.95;99619.09;235016;1174;115040;-69
2021/04/02 19:21:36;;;;;;;29.90;12.75;;;;;;;3.53;72.93;99621.11;234928;1174;116149;-69
2021/04/02 19:26:40;;;;;;;29.57;17.23;;;;;;;3.64;72.93;99622.41;234435;1174;115839;-70
2021/04/02 19:31:46;;;;;;;25.53;15.93;;;;;;;3.58;72.75;99623.17;234927;1174;115605;-69
2021/04/02 19:36:50;;;;;;;40.40;21.20;;;;;;;3.58;71.94;99623.17;233283;1174;115493;-68
2021/04/02 19:41:54;;;;;;;44.40;21.05;;;;;;;3.54;73.43;99617.47;233392;1173;116230;-66
2021/04/02 19:46:58;;;;;;;30.50;18.25;;;;;;;3.52;72.60;99614.21;234303;1171;115322;-66
2021/04/02 19:52:02;;;;;;;29.10;16.10;;;;;;;3.51;72.70;99617.85;232349;1174;116361;-66
2021/04/02 19:57:06;;;;;;;28.37;15.23;;;;;;;3.49;73.95;99609.32;233687;1174;115719;-67
2021/04/02 20:02:09;;;;;;;28.75;16.60;;;;;;;3.54;74.53;99604.30;233045;1174;115694;-67
2021/04/02 20:07:12;;;;;;;23.65;15.20;;;;;;;3.56;73.82;99602.28;233384;1174;115847;-69
2021/04/02 20:12:17;;;;;;;22.13;13.67;;;;;;;3.62;73.18;99608.61;232459;1174;115449;-67
2021/04/02 20:17:20;;;;;;;19.75;13.15;;;;;;;3.51;71.98;99601.22;233286;1174;115656;-69
2021/04/02 20:22:25;;;;;;;19.45;11.68;;;;;;;3.45;73.98;99604.63;232661;1174;117532;-66
2021/04/02 20:27:28;;;;;;;18.63;9.50;;;;;;;3.37;75.15;99601.11;232546;1174;115152;-68
2021/04/02 20:32:32;;;;;;;15.47;9.93;;;;;;;3.30;73.98;99595.00;233399;1174;114497;-68
2021/04/02 20:37:36;;;;;;;25.13;15.53;;;;;;;3.25;75.42;99593.95;232614;1176;117340;-67
2021/04/02 20:42:40;;;;;;;26.53;13.25;;;;;;;3.24;73.00;99592.31;232605;1174;116069;-67
2021/04/02 20:47:43;;;;;;;18.10;12.50;;;;;;;3.19;74.43;99594.70;232547;1174;115646;-67
2021/04/02 20:52:46;;;;;;;26.97;13.17;;;;;;;3.21;75.39;99587.42;233853;1174;115341;-67
2021/04/02 20:57:50;;;;;;;23.30;11.80;;;;;;;3.21;75.49;99584.79;233043;1174;114897;-68
2021/04/02 21:02:56;;;;;;;25.60;12.77;;;;;;;3.25;75.17;99594.76;232648;1174;115347;-68
2021/04/02 21:08:00;;;;;;;22.30;11.75;;;;;;;3.28;75.00;99590.93;234290;1174;115416;-67
2021/04/02 21:13:03;;;;;;;15.63;11.13;;;;;;;3.22;77.13;99581.15;233061;1174;115315;-68
2021/04/02 21:18:07;;;;;;;18.00;11.25;;;;;;;3.26;75.51;99564.78;233639;1174;115773;-67
2021/04/02 21:23:11;;;;;;;20.53;12.03;;;;;;;3.31;76.16;99564.20;234169;1170;115889;-68
2021/04/02 21:28:14;;;;;;;24.05;13.10;;;;;;;3.41;75.50;99569.93;234142;1174;115037;-68
2021/04/02 21:33:18;;;;;;;15.85;7.60;;;;;;;3.31;75.40;99561.57;234342;1174;114841;-68
2021/04/02 21:38:22;;;;;;;18.20;9.23;;;;;;;3.33;76.42;99559.56;235095;1167;115068;-65
2021/04/02 21:43:26;;;;;;;21.60;11.03;;;;;;;3.44;75.34;99566.09;234667;1174;114548;-66
2021/04/02 21:48:31;;;;;;;20.05;11.40;;;;;;;3.56;73.52;99562.75;234835;1174;114849;-67
2021/04/02 21:53:34;;;;;;;23.88;12.90;;;;;;;3.66;73.23;99562.41;235047;1170;115475;-67
2021/04/02 21:58:39;;;;;;;34.37;19.27;;;;;;;3.66;73.87;99562.41;234920;1173;115324;-67
2021/04/02 22:03:44;;;;;;;34.50;16.33;;;;;;;3.68;75.93;99555.91;233438;1174;116383;-67
2021/04/02 22:08:47;;;;;;;25.03;15.17;;;;;;;3.60;75.25;99561.36;233853;1174;116170;-69
2021/04/02 22:13:52;;;;;;;36.37;16.13;;;;;;;3.65;76.32;99563.41;232762;1174;115707;-68
2021/04/02 22:18:56;;;;;;;36.50;19.78;;;;;;;3.74;74.78;99556.95;232605;1174;115597;-66
2021/04/02 22:23:59;;;;;;;29.57;17.47;;;;;;;3.77;76.04;99550.48;232439;1174;115967;-67
2021/04/02 22:29:06;;;;;;;44.07;21.13;;;;;;;3.76;76.28;99551.48;233403;1173;115437;-67
2021/04/02 22:34:09;;;;;;;25.80;15.80;;;;;;;3.63;75.61;99553.06;232744;1174;116470;-67
2021/04/02 22:39:12;;;;;;;35.90;21.20;;;;;;;3.54;75.84;99543.67;232628;1174;115294;-68
2021/04/02 22:44:17;;;;;;;36.77;17.40;;;;;;;3.42;75.64;99547.84;233560;1174;115525;-68
2021/04/02 22:49:24;;;;;;;;;;;;;;;3.32;71.50;99537.67;232657;1174;115321;-65
2021/04/02 22:54:29;;;;;;;65.05;26.10;;;;;;;3.30;73.96;99539.68;234233;1174;102245;-66
2021/04/02 22:59:33;;;;;;;48.98;23.20;;;;;;;3.20;74.80;99541.02;233063;1174;114917;-64
2021/04/02 23:04:37;;;;;;;60.00;26.58;;;;;;;3.07;75.30;99541.72;232550;1172;115400;-66
2021/04/02 23:09:42;;;;;;;39.05;19.05;;;;;;;2.94;76.29;99537.18;232626;1174;115597;-66
2021/04/02 23:14:47;;;;;;;41.20;16.08;;;;;;;2.86;76.54;99533.86;233339;1174;115517;-64
2021/04/02 23:19:51;;;;;;;43.70;17.95;;;;;;;2.90;76.73;99543.01;234052;1174;115599;-65
2021/04/02 23:24:55;;;;;;;33.67;18.80;;;;;;;2.97;77.41;99542.06;232611;1174;115292;-66
2021/04/02 23:35:28;;;;;;;24.80;12.43;;;;;;;2.83;78.44;99534.23;233743;1174;115329;-65